Waupaca, WI

6:12 PM CST on December 25, 2014 (GMT -0600)
KWIWAUPA3 | Change Station
CLOSE
Current Station
Personal Weather Station
Location: Waupaca, WI
Elevation: 900 ft
Nearby Weather Stations

Elev 900 ft 44.38 °N, 89.23 °W | Updated 2 minutes ago

Partly Cloudy
Partly Cloudy
28.8 °F
Feels Like 29 °F
N
0.0
Wind Variable Wind from SSW
Gusts 0.0 mph

Today
High -- | Low -- °F
--% Chance of Precip.
Yesterday
High -- | Low -- °F
Precip. -- in
7:30 AM 4:22 PM
Waxing Crescent, 20% visible
Pressure 29.87 in
Visibility 7.0 miles
Clouds Clear
Windchill 29 °F
Dew Point 27 °F
Humidity 92%
Rainfall 0.00 in
Snow Depth Not available.
UV 0 out of 12
Pollen .10 out of 12
Air Quality Not available.
Flu Activity Not available.
METAR KPCZ 252355Z AUTO 10003KT 7SM CLR 00/M01 A2987 RMK AO2 T00001015 10030 20000

More Conditions Fewer Conditions

Pressure 29.87 in
Visibility 7.0 miles
Clouds Clear
Windchill 29 °F
Dew Point 27 °F
Humidity 92%
Rainfall 0.00 in
Snow Depth Not available.
UV 0 out of 12
Pollen .10 out of 12
Air Quality Not available.
Flu Activity Not available.
METAR KPCZ 252355Z AUTO 10003KT 7SM CLR 00/M01 A2987 RMK AO2 T00001015 10030 20000

More Conditions Fewer Conditions

10-Day Weather Forecast

Almanac

Astronomy

Dec. 25, 2014 Rise Set
Actual Time
Civil Twilight
Nautical Twilight
Astronomical Twilight
Moon
Length of Visible Light
Length of Day
Tomorrow will be .
, % of the Moon is Illuminated

Today's Extremes

State Highs State Lows

Community

WunderPhotos

Upload Photos

1,780,473 photos uploaded!

WunderBlogs® & News

Nearby

Air Quality

  Air Quality AQ Index Pollutant
Not available.

Snow Depth

Station Depth Elevation

Earthquake Activity

City Distance Mag. Time & Date
Minimum magnitude displayed is 2.5.

Coastal Water Temperatures

Place Temperature

Nearby Weather Stations